sensor_id;sensor_type;location;lat;lon;timestamp;P1;durP1;ratioP1;P2;durP2;ratioP2
18653;SDS011;9456;47.824;16.228;2022-12-29T00:01:16;26.17;;;15.60;;
18653;SDS011;9456;47.824;16.228;2022-12-29T00:03:46;23.77;;;15.60;;
18653;SDS011;9456;47.824;16.228;2022-12-29T00:06:15;39.70;;;22.13;;
18653;SDS011;9456;47.824;16.228;2022-12-29T00:08:44;45.37;;;25.37;;
18653;SDS011;9456;47.824;16.228;2022-12-29T00:11:14;39.03;;;21.47;;
18653;SDS011;9456;47.824;16.228;2022-12-29T00:13:42;34.53;;;21.93;;
18653;SDS011;9456;47.824;16.228;2022-12-29T00:16:29;42.93;;;21.43;;
18653;SDS011;9456;47.824;16.228;2022-12-29T00:18:57;42.60;;;21.27;;
18653;SDS011;9456;47.824;16.228;2022-12-29T00:21:26;37.87;;;21.13;;
18653;SDS011;9456;47.824;16.228;2022-12-29T00:24:13;25.20;;;15.90;;
18653;SDS011;9456;47.824;16.228;2022-12-29T00:27:11;21.57;;;14.40;;
18653;SDS011;9456;47.824;16.228;2022-12-29T00:29:51;18.77;;;12.73;;
18653;SDS011;9456;47.824;16.228;2022-12-29T00:32:45;20.03;;;12.90;;
18653;SDS011;9456;47.824;16.228;2022-12-29T00:35:33;19.00;;;13.53;;
18653;SDS011;9456;47.824;16.228;2022-12-29T00:38:02;22.53;;;13.77;;
18653;SDS011;9456;47.824;16.228;2022-12-29T00:40:48;22.40;;;15.17;;
18653;SDS011;9456;47.824;16.228;2022-12-29T00:43:34;21.50;;;14.70;;
18653;SDS011;9456;47.824;16.228;2022-12-29T00:46:22;22.60;;;16.53;;
18653;SDS011;9456;47.824;16.228;2022-12-29T00:48:51;19.97;;;14.70;;
18653;SDS011;9456;47.824;16.228;2022-12-29T00:51:37;21.33;;;14.77;;
18653;SDS011;9456;47.824;16.228;2022-12-29T00:54:06;21.60;;;13.93;;
18653;SDS011;9456;47.824;16.228;2022-12-29T00:56:35;21.40;;;13.20;;
18653;SDS011;9456;47.824;16.228;2022-12-29T00:59:05;20.97;;;15.00;;
18653;SDS011;9456;47.824;16.228;2022-12-29T01:01:34;23.30;;;14.97;;
18653;SDS011;9456;47.824;16.228;2022-12-29T01:04:02;22.27;;;15.63;;
18653;SDS011;9456;47.824;16.228;2022-12-29T01:06:31;20.00;;;14.60;;
18653;SDS011;9456;47.824;16.228;2022-12-29T01:09:00;20.20;;;14.73;;
18653;SDS011;9456;47.824;16.228;2022-12-29T01:11:47;27.93;;;18.87;;
18653;SDS011;9456;47.824;16.228;2022-12-29T01:14:16;29.37;;;20.27;;
18653;SDS011;9456;47.824;16.228;2022-12-29T01:16:45;30.40;;;21.37;;
18653;SDS011;9456;47.824;16.228;2022-12-29T01:19:14;29.17;;;19.00;;
18653;SDS011;9456;47.824;16.228;2022-12-29T01:21:43;28.23;;;19.17;;
18653;SDS011;9456;47.824;16.228;2022-12-29T01:24:12;21.77;;;16.80;;
18653;SDS011;9456;47.824;16.228;2022-12-29T01:26:41;21.53;;;16.37;;
18653;SDS011;9456;47.824;16.228;2022-12-29T01:29:10;24.87;;;15.20;;
18653;SDS011;9456;47.824;16.228;2022-12-29T01:31:39;23.70;;;16.07;;
18653;SDS011;9456;47.824;16.228;2022-12-29T01:34:08;23.80;;;15.50;;
18653;SDS011;9456;47.824;16.228;2022-12-29T01:36:37;24.70;;;16.63;;
18653;SDS011;9456;47.824;16.228;2022-12-29T01:39:06;24.20;;;16.83;;
18653;SDS011;9456;47.824;16.228;2022-12-29T01:41:35;27.30;;;17.67;;
18653;SDS011;9456;47.824;16.228;2022-12-29T01:52:37;30.03;;;19.17;;
18653;SDS011;9456;47.824;16.228;2022-12-29T01:55:06;32.00;;;20.03;;
18653;SDS011;9456;47.824;16.228;2022-12-29T01:57:36;56.43;;;28.20;;
18653;SDS011;9456;47.824;16.228;2022-12-29T02:00:06;48.47;;;26.17;;
18653;SDS011;9456;47.824;16.228;2022-12-29T02:02:35;46.93;;;25.97;;
18653;SDS011;9456;47.824;16.228;2022-12-29T02:05:07;62.77;;;32.60;;
18653;SDS011;9456;47.824;16.228;2022-12-29T02:07:36;53.13;;;29.57;;
18653;SDS011;9456;47.824;16.228;2022-12-29T02:10:05;45.37;;;27.07;;
18653;SDS011;9456;47.824;16.228;2022-12-29T02:12:35;24.90;;;18.17;;
18653;SDS011;9456;47.824;16.228;2022-12-29T02:15:05;24.87;;;17.47;;
18653;SDS011;9456;47.824;16.228;2022-12-29T02:17:40;24.90;;;17.53;;
18653;SDS011;9456;47.824;16.228;2022-12-29T02:20:27;30.30;;;19.80;;
18653;SDS011;9456;47.824;16.228;2022-12-29T02:23:27;75.13;;;36.63;;
18653;SDS011;9456;47.824;16.228;2022-12-29T02:26:07;30.33;;;20.47;;
18653;SDS011;9456;47.824;16.228;2022-12-29T02:29:15;29.20;;;18.93;;
18653;SDS011;9456;47.824;16.228;2022-12-29T02:32:05;29.63;;;17.50;;
18653;SDS011;9456;47.824;16.228;2022-12-29T02:34:38;31.53;;;19.73;;
18653;SDS011;9456;47.824;16.228;2022-12-29T02:37:06;27.63;;;17.93;;
18653;SDS011;9456;47.824;16.228;2022-12-29T02:39:36;33.37;;;21.57;;
18653;SDS011;9456;47.824;16.228;2022-12-29T02:42:06;45.70;;;26.63;;
18653;SDS011;9456;47.824;16.228;2022-12-29T02:44:36;42.67;;;24.70;;
18653;SDS011;9456;47.824;16.228;2022-12-29T02:47:07;39.57;;;21.67;;
18653;SDS011;9456;47.824;16.228;2022-12-29T02:49:45;36.97;;;25.97;;
18653;SDS011;9456;47.824;16.228;2022-12-29T02:52:14;44.90;;;21.83;;
18653;SDS011;9456;47.824;16.228;2022-12-29T02:54:41;25.40;;;17.57;;
18653;SDS011;9456;47.824;16.228;2022-12-29T02:57:14;24.27;;;17.33;;
18653;SDS011;9456;47.824;16.228;2022-12-29T02:59:42;21.83;;;16.10;;
18653;SDS011;9456;47.824;16.228;2022-12-29T03:02:25;25.47;;;16.83;;
18653;SDS011;9456;47.824;16.228;2022-12-29T03:05:08;23.03;;;16.17;;
18653;SDS011;9456;47.824;16.228;2022-12-29T03:08:01;27.57;;;16.70;;
18653;SDS011;9456;47.824;16.228;2022-12-29T03:10:35;25.03;;;17.30;;
18653;SDS011;9456;47.824;16.228;2022-12-29T03:13:07;26.00;;;16.90;;
18653;SDS011;9456;47.824;16.228;2022-12-29T03:15:55;25.00;;;17.50;;
18653;SDS011;9456;47.824;16.228;2022-12-29T03:18:34;25.17;;;18.27;;
18653;SDS011;9456;47.824;16.228;2022-12-29T03:21:14;21.13;;;15.00;;
18653;SDS011;9456;47.824;16.228;2022-12-29T03:23:42;20.50;;;12.20;;
18653;SDS011;9456;47.824;16.228;2022-12-29T03:26:11;21.53;;;13.97;;
18653;SDS011;9456;47.824;16.228;2022-12-29T03:28:40;18.57;;;13.03;;
18653;SDS011;9456;47.824;16.228;2022-12-29T03:31:09;17.67;;;13.07;;
18653;SDS011;9456;47.824;16.228;2022-12-29T03:33:38;17.90;;;12.90;;
18653;SDS011;9456;47.824;16.228;2022-12-29T03:36:10;19.60;;;12.70;;
18653;SDS011;9456;47.824;16.228;2022-12-29T03:38:38;18.47;;;14.17;;
18653;SDS011;9456;47.824;16.228;2022-12-29T03:41:07;21.67;;;15.47;;
18653;SDS011;9456;47.824;16.228;2022-12-29T03:43:35;22.27;;;15.23;;
18653;SDS011;9456;47.824;16.228;2022-12-29T03:46:05;23.13;;;15.97;;
18653;SDS011;9456;47.824;16.228;2022-12-29T03:48:34;26.07;;;16.10;;
18653;SDS011;9456;47.824;16.228;2022-12-29T03:53:52;22.47;;;16.77;;
18653;SDS011;9456;47.824;16.228;2022-12-29T03:56:21;23.63;;;15.77;;
18653;SDS011;9456;47.824;16.228;2022-12-29T03:58:50;23.17;;;16.47;;
18653;SDS011;9456;47.824;16.228;2022-12-29T04:01:19;38.27;;;19.93;;
18653;SDS011;9456;47.824;16.228;2022-12-29T04:03:48;51.00;;;27.47;;
18653;SDS011;9456;47.824;16.228;2022-12-29T04:06:17;39.27;;;21.13;;
18653;SDS011;9456;47.824;16.228;2022-12-29T04:08:45;44.70;;;25.23;;
18653;SDS011;9456;47.824;16.228;2022-12-29T04:11:14;47.10;;;26.27;;
18653;SDS011;9456;47.824;16.228;2022-12-29T04:13:43;43.87;;;25.17;;
18653;SDS011;9456;47.824;16.228;2022-12-29T04:16:12;44.10;;;23.83;;
18653;SDS011;9456;47.824;16.228;2022-12-29T04:18:41;48.13;;;24.97;;
18653;SDS011;9456;47.824;16.228;2022-12-29T04:21:10;49.77;;;25.53;;
18653;SDS011;9456;47.824;16.228;2022-12-29T04:23:39;40.17;;;23.03;;
18653;SDS011;9456;47.824;16.228;2022-12-29T04:26:08;34.57;;;20.77;;
18653;SDS011;9456;47.824;16.228;2022-12-29T04:28:37;36.93;;;21.37;;
18653;SDS011;9456;47.824;16.228;2022-12-29T04:31:06;32.57;;;20.37;;
18653;SDS011;9456;47.824;16.228;2022-12-29T04:33:35;34.40;;;19.80;;
18653;SDS011;9456;47.824;16.228;2022-12-29T04:36:04;27.77;;;17.57;;
18653;SDS011;9456;47.824;16.228;2022-12-29T04:38:34;27.93;;;17.63;;
18653;SDS011;9456;47.824;16.228;2022-12-29T04:41:02;31.80;;;17.00;;
18653;SDS011;9456;47.824;16.228;2022-12-29T04:43:32;22.73;;;15.83;;
18653;SDS011;9456;47.824;16.228;2022-12-29T04:46:00;22.07;;;15.73;;
18653;SDS011;9456;47.824;16.228;2022-12-29T04:48:29;27.60;;;15.27;;
18653;SDS011;9456;47.824;16.228;2022-12-29T04:50:58;22.87;;;15.83;;
18653;SDS011;9456;47.824;16.228;2022-12-29T04:56:08;20.63;;;15.20;;
18653;SDS011;9456;47.824;16.228;2022-12-29T04:58:37;20.20;;;14.63;;
18653;SDS011;9456;47.824;16.228;2022-12-29T05:01:06;22.40;;;15.70;;
18653;SDS011;9456;47.824;16.228;2022-12-29T05:03:35;20.57;;;15.63;;
18653;SDS011;9456;47.824;16.228;2022-12-29T05:06:04;20.90;;;13.23;;
18653;SDS011;9456;47.824;16.228;2022-12-29T05:08:33;24.23;;;15.03;;
18653;SDS011;9456;47.824;16.228;2022-12-29T05:11:02;19.60;;;13.70;;
18653;SDS011;9456;47.824;16.228;2022-12-29T05:13:31;20.17;;;14.37;;
18653;SDS011;9456;47.824;16.228;2022-12-29T05:16:00;20.30;;;14.23;;
18653;SDS011;9456;47.824;16.228;2022-12-29T05:18:29;17.83;;;12.37;;
18653;SDS011;9456;47.824;16.228;2022-12-29T05:20:58;22.70;;;14.30;;
18653;SDS011;9456;47.824;16.228;2022-12-29T05:23:27;22.03;;;15.90;;
18653;SDS011;9456;47.824;16.228;2022-12-29T05:25:56;22.80;;;15.17;;
18653;SDS011;9456;47.824;16.228;2022-12-29T05:28:25;24.27;;;18.03;;
18653;SDS011;9456;47.824;16.228;2022-12-29T05:30:54;27.43;;;19.30;;
18653;SDS011;9456;47.824;16.228;2022-12-29T05:33:23;25.13;;;18.60;;
18653;SDS011;9456;47.824;16.228;2022-12-29T05:35:52;29.13;;;19.10;;
18653;SDS011;9456;47.824;16.228;2022-12-29T05:38:21;24.73;;;16.70;;
18653;SDS011;9456;47.824;16.228;2022-12-29T05:40:50;26.90;;;16.90;;
18653;SDS011;9456;47.824;16.228;2022-12-29T05:43:19;26.43;;;16.07;;
18653;SDS011;9456;47.824;16.228;2022-12-29T05:45:49;34.00;;;21.23;;
18653;SDS011;9456;47.824;16.228;2022-12-29T05:48:18;23.17;;;16.13;;
18653;SDS011;9456;47.824;16.228;2022-12-29T05:50:47;22.33;;;16.10;;
18653;SDS011;9456;47.824;16.228;2022-12-29T05:53:17;24.80;;;16.60;;
18653;SDS011;9456;47.824;16.228;2022-12-29T05:55:53;22.90;;;15.50;;
18653;SDS011;9456;47.824;16.228;2022-12-29T05:58:22;31.77;;;19.07;;
18653;SDS011;9456;47.824;16.228;2022-12-29T06:00:51;27.53;;;18.80;;
18653;SDS011;9456;47.824;16.228;2022-12-29T06:03:20;32.47;;;21.00;;
18653;SDS011;9456;47.824;16.228;2022-12-29T06:05:49;27.33;;;17.37;;
18653;SDS011;9456;47.824;16.228;2022-12-29T06:08:18;26.00;;;17.33;;
18653;SDS011;9456;47.824;16.228;2022-12-29T06:10:47;22.10;;;16.93;;
18653;SDS011;9456;47.824;16.228;2022-12-29T06:13:16;22.87;;;14.83;;
18653;SDS011;9456;47.824;16.228;2022-12-29T06:15:45;22.13;;;14.73;;
18653;SDS011;9456;47.824;16.228;2022-12-29T06:18:14;23.67;;;14.53;;
18653;SDS011;9456;47.824;16.228;2022-12-29T06:20:43;25.27;;;16.00;;
18653;SDS011;9456;47.824;16.228;2022-12-29T06:23:12;24.33;;;16.43;;
18653;SDS011;9456;47.824;16.228;2022-12-29T06:25:41;67.67;;;35.93;;
18653;SDS011;9456;47.824;16.228;2022-12-29T06:28:09;35.83;;;21.00;;
18653;SDS011;9456;47.824;16.228;2022-12-29T06:30:38;28.40;;;17.57;;
18653;SDS011;9456;47.824;16.228;2022-12-29T06:33:07;44.37;;;24.93;;
18653;SDS011;9456;47.824;16.228;2022-12-29T06:35:36;63.87;;;34.87;;
18653;SDS011;9456;47.824;16.228;2022-12-29T06:38:05;55.17;;;30.83;;
18653;SDS011;9456;47.824;16.228;2022-12-29T06:40:34;33.50;;;19.47;;
18653;SDS011;9456;47.824;16.228;2022-12-29T06:43:03;33.50;;;17.73;;
18653;SDS011;9456;47.824;16.228;2022-12-29T06:45:32;27.93;;;17.67;;
18653;SDS011;9456;47.824;16.228;2022-12-29T06:48:01;27.83;;;18.13;;
18653;SDS011;9456;47.824;16.228;2022-12-29T06:50:31;43.10;;;24.17;;
18653;SDS011;9456;47.824;16.228;2022-12-29T06:53:00;40.77;;;23.10;;
18653;SDS011;9456;47.824;16.228;2022-12-29T06:55:29;41.10;;;22.70;;
18653;SDS011;9456;47.824;16.228;2022-12-29T06:58:00;50.73;;;26.03;;
18653;SDS011;9456;47.824;16.228;2022-12-29T07:00:29;99.77;;;42.93;;
18653;SDS011;9456;47.824;16.228;2022-12-29T07:02:58;88.73;;;36.27;;
18653;SDS011;9456;47.824;16.228;2022-12-29T07:05:27;104.00;;;35.43;;
18653;SDS011;9456;47.824;16.228;2022-12-29T07:07:56;83.00;;;33.10;;
18653;SDS011;9456;47.824;16.228;2022-12-29T07:10:25;90.77;;;38.43;;
18653;SDS011;9456;47.824;16.228;2022-12-29T07:12:54;113.37;;;44.90;;
18653;SDS011;9456;47.824;16.228;2022-12-29T07:15:23;201.17;;;43.07;;
18653;SDS011;9456;47.824;16.228;2022-12-29T07:17:52;121.60;;;38.20;;
18653;SDS011;9456;47.824;16.228;2022-12-29T07:20:21;146.23;;;38.03;;
18653;SDS011;9456;47.824;16.228;2022-12-29T07:22:49;172.70;;;39.37;;
18653;SDS011;9456;47.824;16.228;2022-12-29T07:25:22;177.27;;;42.17;;
18653;SDS011;9456;47.824;16.228;2022-12-29T07:27:51;196.20;;;41.37;;
18653;SDS011;9456;47.824;16.228;2022-12-29T07:30:20;329.50;;;78.00;;
18653;SDS011;9456;47.824;16.228;2022-12-29T07:32:49;154.80;;;37.53;;
18653;SDS011;9456;47.824;16.228;2022-12-29T07:35:18;192.10;;;39.47;;
18653;SDS011;9456;47.824;16.228;2022-12-29T07:37:47;146.97;;;37.97;;
18653;SDS011;9456;47.824;16.228;2022-12-29T07:40:16;163.17;;;36.17;;
18653;SDS011;9456;47.824;16.228;2022-12-29T07:42:45;177.47;;;36.87;;
18653;SDS011;9456;47.824;16.228;2022-12-29T07:45:14;192.87;;;38.43;;
18653;SDS011;9456;47.824;16.228;2022-12-29T07:47:43;148.23;;;34.10;;
18653;SDS011;9456;47.824;16.228;2022-12-29T07:50:13;142.33;;;32.03;;
18653;SDS011;9456;47.824;16.228;2022-12-29T07:52:42;94.53;;;32.00;;
18653;SDS011;9456;47.824;16.228;2022-12-29T07:55:12;210.90;;;33.97;;
18653;SDS011;9456;47.824;16.228;2022-12-29T07:57:41;83.80;;;35.53;;
18653;SDS011;9456;47.824;16.228;2022-12-29T08:00:11;120.57;;;37.33;;
18653;SDS011;9456;47.824;16.228;2022-12-29T08:02:41;152.40;;;32.97;;
18653;SDS011;9456;47.824;16.228;2022-12-29T08:05:10;90.73;;;30.77;;
18653;SDS011;9456;47.824;16.228;2022-12-29T08:07:38;114.83;;;28.20;;
18653;SDS011;9456;47.824;16.228;2022-12-29T08:10:08;98.07;;;26.40;;
18653;SDS011;9456;47.824;16.228;2022-12-29T08:12:38;118.80;;;28.10;;
18653;SDS011;9456;47.824;16.228;2022-12-29T08:15:08;90.80;;;26.87;;
18653;SDS011;9456;47.824;16.228;2022-12-29T08:17:37;71.97;;;28.23;;
18653;SDS011;9456;47.824;16.228;2022-12-29T08:20:07;95.30;;;28.30;;
18653;SDS011;9456;47.824;16.228;2022-12-29T08:22:37;102.50;;;27.30;;
18653;SDS011;9456;47.824;16.228;2022-12-29T08:25:06;67.33;;;26.67;;
18653;SDS011;9456;47.824;16.228;2022-12-29T08:27:36;81.47;;;27.83;;
18653;SDS011;9456;47.824;16.228;2022-12-29T08:30:06;47.77;;;27.03;;
18653;SDS011;9456;47.824;16.228;2022-12-29T08:32:36;82.00;;;26.73;;
18653;SDS011;9456;47.824;16.228;2022-12-29T08:35:05;72.70;;;25.20;;
18653;SDS011;9456;47.824;16.228;2022-12-29T08:37:39;45.17;;;22.90;;
18653;SDS011;9456;47.824;16.228;2022-12-29T08:40:09;49.07;;;23.43;;
18653;SDS011;9456;47.824;16.228;2022-12-29T08:42:38;38.63;;;22.10;;
18653;SDS011;9456;47.824;16.228;2022-12-29T08:45:08;115.90;;;26.73;;
18653;SDS011;9456;47.824;16.228;2022-12-29T08:47:37;78.17;;;28.37;;
18653;SDS011;9456;47.824;16.228;2022-12-29T08:50:07;82.93;;;27.13;;
18653;SDS011;9456;47.824;16.228;2022-12-29T08:52:36;38.20;;;27.60;;
18653;SDS011;9456;47.824;16.228;2022-12-29T08:55:05;70.07;;;25.63;;
18653;SDS011;9456;47.824;16.228;2022-12-29T08:57:35;62.50;;;25.60;;
18653;SDS011;9456;47.824;16.228;2022-12-29T09:00:05;74.63;;;24.37;;
18653;SDS011;9456;47.824;16.228;2022-12-29T09:02:36;82.97;;;24.87;;
18653;SDS011;9456;47.824;16.228;2022-12-29T09:05:06;75.87;;;24.60;;
18653;SDS011;9456;47.824;16.228;2022-12-29T09:07:36;62.30;;;24.27;;
18653;SDS011;9456;47.824;16.228;2022-12-29T09:10:07;87.07;;;24.30;;
18653;SDS011;9456;47.824;16.228;2022-12-29T09:12:36;46.33;;;22.13;;
18653;SDS011;9456;47.824;16.228;2022-12-29T09:15:06;53.37;;;22.83;;
18653;SDS011;9456;47.824;16.228;2022-12-29T09:17:36;56.03;;;22.63;;
18653;SDS011;9456;47.824;16.228;2022-12-29T09:20:11;78.57;;;23.50;;
18653;SDS011;9456;47.824;16.228;2022-12-29T09:22:40;56.17;;;24.47;;
18653;SDS011;9456;47.824;16.228;2022-12-29T09:25:09;46.53;;;24.10;;
18653;SDS011;9456;47.824;16.228;2022-12-29T09:27:38;57.47;;;24.77;;
18653;SDS011;9456;47.824;16.228;2022-12-29T09:30:09;41.37;;;23.60;;
18653;SDS011;9456;47.824;16.228;2022-12-29T09:32:38;50.63;;;25.17;;
18653;SDS011;9456;47.824;16.228;2022-12-29T09:35:07;44.70;;;26.43;;
18653;SDS011;9456;47.824;16.228;2022-12-29T09:37:36;47.20;;;25.80;;
18653;SDS011;9456;47.824;16.228;2022-12-29T09:40:06;52.20;;;26.57;;
18653;SDS011;9456;47.824;16.228;2022-12-29T09:42:38;39.30;;;25.27;;
18653;SDS011;9456;47.824;16.228;2022-12-29T09:45:10;41.47;;;26.20;;
18653;SDS011;9456;47.824;16.228;2022-12-29T09:47:39;50.20;;;30.00;;
18653;SDS011;9456;47.824;16.228;2022-12-29T09:50:10;62.03;;;34.23;;
18653;SDS011;9456;47.824;16.228;2022-12-29T09:52:40;53.27;;;32.33;;
18653;SDS011;9456;47.824;16.228;2022-12-29T09:55:09;44.83;;;27.43;;
18653;SDS011;9456;47.824;16.228;2022-12-29T09:57:40;42.13;;;27.50;;
18653;SDS011;9456;47.824;16.228;2022-12-29T10:00:11;42.53;;;27.33;;
18653;SDS011;9456;47.824;16.228;2022-12-29T10:02:41;37.07;;;26.07;;
18653;SDS011;9456;47.824;16.228;2022-12-29T10:05:26;42.30;;;27.03;;
18653;SDS011;9456;47.824;16.228;2022-12-29T10:08:00;46.10;;;27.47;;
18653;SDS011;9456;47.824;16.228;2022-12-29T10:10:32;41.67;;;25.20;;
18653;SDS011;9456;47.824;16.228;2022-12-29T10:13:04;38.27;;;24.27;;
18653;SDS011;9456;47.824;16.228;2022-12-29T10:15:44;30.67;;;22.17;;
18653;SDS011;9456;47.824;16.228;2022-12-29T10:18:20;27.77;;;20.03;;
18653;SDS011;9456;47.824;16.228;2022-12-29T10:20:51;26.33;;;19.33;;
18653;SDS011;9456;47.824;16.228;2022-12-29T10:23:24;20.97;;;16.43;;
18653;SDS011;9456;47.824;16.228;2022-12-29T10:25:56;21.20;;;15.97;;
18653;SDS011;9456;47.824;16.228;2022-12-29T10:28:28;21.33;;;16.87;;
18653;SDS011;9456;47.824;16.228;2022-12-29T10:30:53;21.23;;;16.63;;
18653;SDS011;9456;47.824;16.228;2022-12-29T10:33:23;21.57;;;16.40;;
18653;SDS011;9456;47.824;16.228;2022-12-29T10:35:51;19.43;;;15.73;;
18653;SDS011;9456;47.824;16.228;2022-12-29T10:38:22;20.80;;;16.17;;
18653;SDS011;9456;47.824;16.228;2022-12-29T10:40:53;21.07;;;17.07;;
18653;SDS011;9456;47.824;16.228;2022-12-29T10:43:24;19.13;;;16.17;;
18653;SDS011;9456;47.824;16.228;2022-12-29T10:45:53;24.67;;;16.13;;
18653;SDS011;9456;47.824;16.228;2022-12-29T10:48:22;24.33;;;17.43;;
18653;SDS011;9456;47.824;16.228;2022-12-29T10:50:51;21.40;;;15.93;;
18653;SDS011;9456;47.824;16.228;2022-12-29T10:53:20;23.90;;;18.30;;
18653;SDS011;9456;47.824;16.228;2022-12-29T10:55:49;39.50;;;19.37;;
18653;SDS011;9456;47.824;16.228;2022-12-29T10:58:18;28.00;;;19.93;;
18653;SDS011;9456;47.824;16.228;2022-12-29T11:00:49;30.00;;;19.70;;
18653;SDS011;9456;47.824;16.228;2022-12-29T11:03:34;30.93;;;19.87;;
18653;SDS011;9456;47.824;16.228;2022-12-29T11:06:11;41.30;;;21.60;;
18653;SDS011;9456;47.824;16.228;2022-12-29T11:08:42;29.97;;;21.07;;
18653;SDS011;9456;47.824;16.228;2022-12-29T11:11:09;29.97;;;20.50;;
18653;SDS011;9456;47.824;16.228;2022-12-29T11:13:47;37.50;;;22.70;;
18653;SDS011;9456;47.824;16.228;2022-12-29T11:16:16;33.53;;;21.10;;
18653;SDS011;9456;47.824;16.228;2022-12-29T11:18:48;41.27;;;21.33;;
18653;SDS011;9456;47.824;16.228;2022-12-29T11:21:26;32.10;;;20.77;;
18653;SDS011;9456;47.824;16.228;2022-12-29T11:23:57;36.93;;;21.37;;
18653;SDS011;9456;47.824;16.228;2022-12-29T11:26:25;33.60;;;21.03;;
18653;SDS011;9456;47.824;16.228;2022-12-29T11:29:11;93.87;;;23.17;;
18653;SDS011;9456;47.824;16.228;2022-12-29T11:31:57;47.97;;;24.03;;
18653;SDS011;9456;47.824;16.228;2022-12-29T11:34:26;41.80;;;24.10;;
18653;SDS011;9456;47.824;16.228;2022-12-29T11:36:58;42.43;;;23.37;;
18653;SDS011;9456;47.824;16.228;2022-12-29T11:39:27;43.53;;;25.07;;
18653;SDS011;9456;47.824;16.228;2022-12-29T11:41:59;43.47;;;25.20;;
18653;SDS011;9456;47.824;16.228;2022-12-29T11:44:29;41.17;;;24.20;;
18653;SDS011;9456;47.824;16.228;2022-12-29T11:46:59;34.10;;;22.10;;
18653;SDS011;9456;47.824;16.228;2022-12-29T11:49:28;35.63;;;23.33;;
18653;SDS011;9456;47.824;16.228;2022-12-29T11:51:57;32.43;;;22.70;;
18653;SDS011;9456;47.824;16.228;2022-12-29T11:54:27;34.67;;;23.67;;
18653;SDS011;9456;47.824;16.228;2022-12-29T11:56:55;69.03;;;23.77;;
18653;SDS011;9456;47.824;16.228;2022-12-29T11:59:43;68.10;;;25.57;;
18653;SDS011;9456;47.824;16.228;2022-12-29T12:05:08;45.23;;;27.50;;
18653;SDS011;9456;47.824;16.228;2022-12-29T12:07:45;53.57;;;26.13;;
18653;SDS011;9456;47.824;16.228;2022-12-29T12:10:17;48.17;;;27.23;;
18653;SDS011;9456;47.824;16.228;2022-12-29T12:12:49;45.90;;;28.20;;
18653;SDS011;9456;47.824;16.228;2022-12-29T12:15:19;49.93;;;27.33;;
18653;SDS011;9456;47.824;16.228;2022-12-29T12:17:49;57.43;;;30.17;;
18653;SDS011;9456;47.824;16.228;2022-12-29T12:20:18;84.80;;;30.13;;
18653;SDS011;9456;47.824;16.228;2022-12-29T12:22:51;67.87;;;32.87;;
18653;SDS011;9456;47.824;16.228;2022-12-29T12:25:21;73.53;;;31.97;;
18653;SDS011;9456;47.824;16.228;2022-12-29T12:27:51;65.87;;;33.50;;
18653;SDS011;9456;47.824;16.228;2022-12-29T12:30:20;58.17;;;32.40;;
18653;SDS011;9456;47.824;16.228;2022-12-29T12:32:50;69.03;;;33.30;;
18653;SDS011;9456;47.824;16.228;2022-12-29T12:35:21;62.80;;;33.60;;
18653;SDS011;9456;47.824;16.228;2022-12-29T12:37:55;100.00;;;30.30;;
18653;SDS011;9456;47.824;16.228;2022-12-29T12:40:33;98.40;;;35.73;;
18653;SDS011;9456;47.824;16.228;2022-12-29T12:43:16;68.03;;;34.37;;
18653;SDS011;9456;47.824;16.228;2022-12-29T12:46:09;67.03;;;36.23;;
18653;SDS011;9456;47.824;16.228;2022-12-29T12:48:47;102.67;;;34.13;;
18653;SDS011;9456;47.824;16.228;2022-12-29T12:51:20;96.13;;;34.43;;
18653;SDS011;9456;47.824;16.228;2022-12-29T12:53:51;65.90;;;34.93;;
18653;SDS011;9456;47.824;16.228;2022-12-29T12:56:34;99.23;;;34.17;;
18653;SDS011;9456;47.824;16.228;2022-12-29T12:59:24;80.80;;;31.63;;
18653;SDS011;9456;47.824;16.228;2022-12-29T13:01:57;60.60;;;32.77;;
18653;SDS011;9456;47.824;16.228;2022-12-29T13:04:41;100.27;;;33.67;;
18653;SDS011;9456;47.824;16.228;2022-12-29T13:07:20;71.83;;;32.40;;
18653;SDS011;9456;47.824;16.228;2022-12-29T13:09:56;75.43;;;32.23;;
18653;SDS011;9456;47.824;16.228;2022-12-29T13:12:31;62.73;;;32.73;;
18653;SDS011;9456;47.824;16.228;2022-12-29T13:15:03;103.30;;;35.27;;
18653;SDS011;9456;47.824;16.228;2022-12-29T13:17:35;77.77;;;32.97;;
18653;SDS011;9456;47.824;16.228;2022-12-29T13:20:06;123.13;;;34.00;;
18653;SDS011;9456;47.824;16.228;2022-12-29T13:22:38;55.23;;;32.30;;
18653;SDS011;9456;47.824;16.228;2022-12-29T13:25:13;54.10;;;32.10;;
18653;SDS011;9456;47.824;16.228;2022-12-29T13:27:48;60.83;;;29.10;;
18653;SDS011;9456;47.824;16.228;2022-12-29T13:30:17;80.57;;;31.57;;
18653;SDS011;9456;47.824;16.228;2022-12-29T13:32:49;96.23;;;34.17;;
18653;SDS011;9456;47.824;16.228;2022-12-29T13:35:23;58.43;;;31.87;;
18653;SDS011;9456;47.824;16.228;2022-12-29T13:37:53;101.20;;;33.57;;
18653;SDS011;9456;47.824;16.228;2022-12-29T13:40:23;97.80;;;35.90;;
18653;SDS011;9456;47.824;16.228;2022-12-29T13:42:51;101.30;;;33.83;;
18653;SDS011;9456;47.824;16.228;2022-12-29T13:45:21;83.43;;;36.00;;
18653;SDS011;9456;47.824;16.228;2022-12-29T13:47:51;127.67;;;33.43;;
18653;SDS011;9456;47.824;16.228;2022-12-29T13:50:19;149.10;;;35.57;;
18653;SDS011;9456;47.824;16.228;2022-12-29T13:52:49;99.80;;;35.50;;
18653;SDS011;9456;47.824;16.228;2022-12-29T13:55:20;65.77;;;31.67;;
18653;SDS011;9456;47.824;16.228;2022-12-29T13:57:51;143.83;;;35.63;;
18653;SDS011;9456;47.824;16.228;2022-12-29T14:00:19;89.33;;;33.10;;
18653;SDS011;9456;47.824;16.228;2022-12-29T14:02:56;68.80;;;33.20;;
18653;SDS011;9456;47.824;16.228;2022-12-29T14:05:30;70.63;;;32.53;;
18653;SDS011;9456;47.824;16.228;2022-12-29T14:07:58;103.93;;;33.87;;
18653;SDS011;9456;47.824;16.228;2022-12-29T14:10:29;76.27;;;30.67;;
18653;SDS011;9456;47.824;16.228;2022-12-29T14:13:01;117.63;;;31.60;;
18653;SDS011;9456;47.824;16.228;2022-12-29T14:15:33;77.50;;;30.00;;
18653;SDS011;9456;47.824;16.228;2022-12-29T14:18:10;101.80;;;32.77;;
18653;SDS011;9456;47.824;16.228;2022-12-29T14:20:41;170.47;;;33.97;;
18653;SDS011;9456;47.824;16.228;2022-12-29T14:23:25;85.30;;;32.87;;
18653;SDS011;9456;47.824;16.228;2022-12-29T14:25:56;84.43;;;32.93;;
18653;SDS011;9456;47.824;16.228;2022-12-29T14:28:25;84.50;;;31.67;;
18653;SDS011;9456;47.824;16.228;2022-12-29T14:36:59;108.53;;;39.73;;
18653;SDS011;9456;47.824;16.228;2022-12-29T14:39:30;97.87;;;36.00;;
18653;SDS011;9456;47.824;16.228;2022-12-29T14:42:03;100.33;;;38.87;;
18653;SDS011;9456;47.824;16.228;2022-12-29T14:44:32;117.90;;;37.37;;
18653;SDS011;9456;47.824;16.228;2022-12-29T14:47:01;83.20;;;37.40;;
18653;SDS011;9456;47.824;16.228;2022-12-29T14:49:30;119.20;;;35.83;;
18653;SDS011;9456;47.824;16.228;2022-12-29T14:52:06;81.60;;;37.40;;
18653;SDS011;9456;47.824;16.228;2022-12-29T14:54:46;68.47;;;33.90;;
18653;SDS011;9456;47.824;16.228;2022-12-29T15:00:14;60.53;;;31.90;;
18653;SDS011;9456;47.824;16.228;2022-12-29T15:02:46;66.53;;;33.53;;
18653;SDS011;9456;47.824;16.228;2022-12-29T15:05:24;93.10;;;37.30;;
18653;SDS011;9456;47.824;16.228;2022-12-29T15:07:56;212.07;;;88.83;;
18653;SDS011;9456;47.824;16.228;2022-12-29T15:10:25;66.33;;;34.20;;
18653;SDS011;9456;47.824;16.228;2022-12-29T15:12:54;157.50;;;77.63;;